createdAt,value
2018-09-27T00:00:27.769Z,1022.87
2018-09-27T00:01:27.755Z,1022.88
2018-09-27T00:02:27.739Z,1022.9
2018-09-27T00:03:27.729Z,1022.95
2018-09-27T00:04:27.712Z,1022.99
2018-09-27T00:05:27.698Z,1022.96
2018-09-27T00:06:27.682Z,1022.91
2018-09-27T00:07:27.666Z,1022.92
2018-09-27T00:08:27.651Z,1022.92
2018-09-27T00:09:27.637Z,1022.88
2018-09-27T00:10:27.621Z,1022.89
2018-09-27T00:11:27.613Z,1022.88
2018-09-27T00:12:27.597Z,1022.86
2018-09-27T00:13:27.579Z,1022.86
2018-09-27T00:14:27.566Z,1022.87
2018-09-27T00:15:27.557Z,1022.88
2018-09-27T00:16:27.570Z,1022.88
2018-09-27T00:17:27.521Z,1022.86
2018-09-27T00:18:27.503Z,1022.89
2018-09-27T00:19:27.542Z,1022.91
2018-09-27T00:20:27.474Z,1022.88
2018-09-27T00:21:27.457Z,1022.9
2018-09-27T00:22:27.443Z,1022.86
2018-09-27T00:23:27.429Z,1022.85
2018-09-27T00:24:27.415Z,1022.83
2018-09-27T00:25:27.403Z,1022.86
2018-09-27T00:26:27.385Z,1022.83
2018-09-27T00:27:27.371Z,1022.82
2018-09-27T00:28:27.355Z,1022.82
2018-09-27T00:29:27.347Z,1022.81
2018-09-27T00:30:27.329Z,1022.77
2018-09-27T00:31:27.311Z,1022.76
2018-09-27T00:32:27.297Z,1022.78
2018-09-27T00:33:27.286Z,1022.73
2018-09-27T00:34:27.267Z,1022.74
2018-09-27T00:35:27.251Z,1022.74
2018-09-27T00:36:27.243Z,1022.71
2018-09-27T00:37:27.225Z,1022.71
2018-09-27T00:38:27.208Z,1022.68
2018-09-27T00:39:27.193Z,1022.68
2018-09-27T00:40:27.179Z,1022.68
2018-09-27T00:41:27.165Z,1022.68
2018-09-27T00:42:27.149Z,1022.68
2018-09-27T00:43:27.134Z,1022.69
2018-09-27T00:44:27.120Z,1022.72
2018-09-27T00:45:27.106Z,1022.66
2018-09-27T00:46:27.096Z,1022.7
2018-09-27T00:47:27.079Z,1022.72
2018-09-27T00:48:27.062Z,1022.7
2018-09-27T00:49:27.049Z,1022.69
2018-09-27T00:50:27.033Z,1022.67
2018-09-27T00:51:27.018Z,1022.63
2018-09-27T00:52:27.005Z,1022.63
2018-09-27T00:53:26.988Z,1022.62
2018-09-27T00:54:26.981Z,1022.59
2018-09-27T00:55:26.962Z,1022.61
2018-09-27T00:56:26.945Z,1022.58
2018-09-27T00:57:26.931Z,1022.53
2018-09-27T00:58:26.919Z,1022.55
2018-09-27T00:59:26.904Z,1022.53
2018-09-27T01:00:26.888Z,1022.57
2018-09-27T01:01:26.873Z,1022.53
2018-09-27T01:02:26.859Z,1022.53
2018-09-27T01:03:26.846Z,1022.52
2018-09-27T01:04:26.832Z,1022.58
2018-09-27T01:05:26.818Z,1022.61
2018-09-27T01:06:26.802Z,1022.56
2018-09-27T01:07:26.787Z,1022.58
2018-09-27T01:08:26.772Z,1022.62
2018-09-27T01:09:26.756Z,1022.58
2018-09-27T01:10:26.743Z,1022.6
2018-09-27T01:11:26.728Z,1022.56
2018-09-27T01:12:26.715Z,1022.56
2018-09-27T01:13:26.701Z,1022.58
2018-09-27T01:14:26.686Z,1022.5
2018-09-27T01:15:26.672Z,1022.52
2018-09-27T01:16:26.656Z,1022.51
2018-09-27T01:17:26.643Z,1022.49
2018-09-27T01:18:26.630Z,1022.47
2018-09-27T01:19:26.617Z,1022.51
2018-09-27T01:20:26.601Z,1022.46
2018-09-27T01:21:26.585Z,1022.47
2018-09-27T01:22:26.572Z,1022.48
2018-09-27T01:23:26.556Z,1022.47
2018-09-27T01:24:26.545Z,1022.51
2018-09-27T01:25:26.532Z,1022.48
2018-09-27T01:26:26.519Z,1022.47
2018-09-27T01:27:26.502Z,1022.46
2018-09-27T01:28:26.489Z,1022.46
2018-09-27T01:29:26.473Z,1022.46
2018-09-27T01:30:26.459Z,1022.46
2018-09-27T01:31:26.444Z,1022.45
2018-09-27T01:32:26.430Z,1022.46
2018-09-27T01:33:26.416Z,1022.42
2018-09-27T01:34:26.401Z,1022.48
2018-09-27T01:35:26.394Z,1022.45
2018-09-27T01:36:26.380Z,1022.43
2018-09-27T01:37:26.360Z,1022.45
2018-09-27T01:38:26.351Z,1022.43
2018-09-27T01:39:26.332Z,1022.44
2018-09-27T01:40:26.320Z,1022.45
2018-09-27T01:41:26.304Z,1022.48
2018-09-27T01:42:26.289Z,1022.45
2018-09-27T01:43:26.283Z,1022.47
2018-09-27T01:44:26.262Z,1022.44
2018-09-27T01:45:26.247Z,1022.43
2018-09-27T01:46:26.232Z,1022.44
2018-09-27T01:47:26.220Z,1022.44
2018-09-27T01:48:26.241Z,1022.44
2018-09-27T01:49:26.192Z,1022.42
2018-09-27T01:50:26.196Z,1022.42
2018-09-27T01:51:26.165Z,1022.44
2018-09-27T01:52:26.150Z,1022.37
2018-09-27T01:53:26.138Z,1022.34
2018-09-27T01:54:26.128Z,1022.34
2018-09-27T01:55:26.108Z,1022.28
2018-09-27T01:56:26.092Z,1022.31
2018-09-27T01:57:26.080Z,1022.25
2018-09-27T01:58:26.066Z,1022.27
2018-09-27T01:59:26.051Z,1022.29
2018-09-27T02:00:26.039Z,1022.25
2018-09-27T02:01:26.029Z,1022.28
2018-09-27T02:02:26.012Z,1022.3
2018-09-27T02:03:25.997Z,1022.34
2018-09-27T02:04:25.982Z,1022.3
2018-09-27T02:05:25.967Z,1022.31
2018-09-27T02:06:25.955Z,1022.28
2018-09-27T02:07:25.941Z,1022.23
2018-09-27T02:08:25.931Z,1022.23
2018-09-27T02:09:25.912Z,1022.17
2018-09-27T02:10:25.898Z,1022.15
2018-09-27T02:11:25.884Z,1022.14
2018-09-27T02:12:25.871Z,1022.14
2018-09-27T02:13:25.854Z,1022.12
2018-09-27T02:14:25.842Z,1022.12
2018-09-27T02:15:25.829Z,1022.16
2018-09-27T02:16:25.815Z,1022.15
2018-09-27T02:17:25.801Z,1022.17
2018-09-27T02:18:25.786Z,1022.16
2018-09-27T02:19:25.772Z,1022.12
2018-09-27T02:20:25.759Z,1022.11
2018-09-27T02:21:25.749Z,1022.12
2018-09-27T02:22:25.730Z,1022.09
2018-09-27T02:23:25.716Z,1022.07
2018-09-27T02:24:25.705Z,1022.05
2018-09-27T02:25:25.688Z,1022.05
2018-09-27T02:26:25.676Z,1022.05
2018-09-27T02:27:25.661Z,1022.06
2018-09-27T02:28:25.648Z,1022.01
2018-09-27T02:29:25.634Z,1022.02
2018-09-27T02:30:25.620Z,1022.03
2018-09-27T02:31:25.605Z,1022
2018-09-27T02:32:25.594Z,1021.99
2018-09-27T02:33:25.576Z,1021.98
2018-09-27T02:34:25.563Z,1022
2018-09-27T02:35:25.552Z,1021.95
2018-09-27T02:36:25.535Z,1021.95
2018-09-27T02:37:25.523Z,1021.94
2018-09-27T02:38:25.508Z,1021.94
2018-09-27T02:39:25.495Z,1021.95
2018-09-27T02:40:25.480Z,1021.91
2018-09-27T02:41:25.465Z,1021.93
2018-09-27T02:42:25.509Z,1021.95
2018-09-27T02:43:25.441Z,1021.94
2018-09-27T02:44:25.428Z,1021.92
2018-09-27T02:45:25.415Z,1021.92
2018-09-27T02:46:25.397Z,1021.88
2018-09-27T02:47:25.380Z,1021.91
2018-09-27T02:48:25.370Z,1021.88
2018-09-27T02:49:25.355Z,1021.9
2018-09-27T02:50:25.340Z,1021.89
2018-09-27T02:51:25.331Z,1021.9
2018-09-27T02:52:25.313Z,1021.88
2018-09-27T02:53:25.303Z,1021.88
2018-09-27T02:54:25.286Z,1021.88
2018-09-27T02:55:25.276Z,1021.82
2018-09-27T02:56:25.264Z,1021.8
2018-09-27T02:57:25.248Z,1021.79
2018-09-27T02:58:25.227Z,1021.74
2018-09-27T02:59:25.214Z,1021.72
2018-09-27T03:00:25.202Z,1021.72
2018-09-27T03:01:25.189Z,1021.72
2018-09-27T03:02:25.173Z,1021.69
2018-09-27T03:03:25.159Z,1021.66
2018-09-27T03:04:25.146Z,1021.68
2018-09-27T03:05:25.132Z,1021.67
2018-09-27T03:06:25.116Z,1021.64
2018-09-27T03:07:25.104Z,1021.66
2018-09-27T03:08:25.090Z,1021.67
2018-09-27T03:09:25.075Z,1021.66
2018-09-27T03:10:25.059Z,1021.63
2018-09-27T03:11:25.047Z,1021.63
2018-09-27T03:12:25.032Z,1021.63
2018-09-27T03:13:25.018Z,1021.61
2018-09-27T03:14:25.004Z,1021.62
2018-09-27T03:15:24.991Z,1021.6
2018-09-27T03:16:24.981Z,1021.61
2018-09-27T03:17:24.960Z,1021.59
2018-09-27T03:18:24.948Z,1021.55
2018-09-27T03:19:24.933Z,1021.57
2018-09-27T03:20:24.918Z,1021.57
2018-09-27T03:21:24.906Z,1021.57
2018-09-27T03:22:24.894Z,1021.54
2018-09-27T03:23:24.875Z,1021.54
2018-09-27T03:24:24.861Z,1021.51
2018-09-27T03:25:24.850Z,1021.51
2018-09-27T03:26:24.835Z,1021.48
2018-09-27T03:27:24.817Z,1021.5
2018-09-27T03:28:24.806Z,1021.48
2018-09-27T03:29:24.790Z,1021.48
2018-09-27T03:30:24.776Z,1021.47
2018-09-27T03:31:24.762Z,1021.46
2018-09-27T03:32:24.746Z,1021.45
2018-09-27T03:33:24.734Z,1021.48
2018-09-27T03:34:24.716Z,1021.45
2018-09-27T03:35:24.701Z,1021.47
2018-09-27T03:36:24.692Z,1021.46
2018-09-27T03:38:24.663Z,1021.44
2018-09-27T03:39:24.646Z,1021.44
2018-09-27T03:40:24.646Z,1021.41
2018-09-27T03:41:24.617Z,1021.43
2018-09-27T03:42:24.603Z,1021.41
2018-09-27T03:43:24.586Z,1021.44
2018-09-27T03:44:24.574Z,1021.43
2018-09-27T03:45:24.556Z,1021.44
2018-09-27T03:46:24.539Z,1021.43
2018-09-27T03:47:24.525Z,1021.45
2018-09-27T03:48:24.511Z,1021.45
2018-09-27T03:49:24.505Z,1021.43
2018-09-27T03:50:24.488Z,1021.44
2018-09-27T03:51:24.495Z,1021.46
2018-09-27T03:52:24.459Z,1021.47
2018-09-27T03:53:24.437Z,1021.44
2018-09-27T03:54:24.423Z,1021.43
2018-09-27T03:55:24.408Z,1021.37
2018-09-27T03:56:24.396Z,1021.37
2018-09-27T03:57:24.378Z,1021.36
2018-09-27T03:58:24.370Z,1021.38
2018-09-27T03:59:24.351Z,1021.38
2018-09-27T04:00:24.338Z,1021.39
2018-09-27T04:01:24.320Z,1021.4
2018-09-27T04:02:24.309Z,1021.42
2018-09-27T04:03:24.340Z,1021.39
2018-09-27T04:04:24.274Z,1021.42
2018-09-27T04:05:24.259Z,1021.39
2018-09-27T04:06:24.248Z,1021.38
2018-09-27T04:07:24.236Z,1021.36
2018-09-27T04:08:24.216Z,1021.31
2018-09-27T04:09:24.202Z,1021.31
2018-09-27T04:10:24.188Z,1021.28
2018-09-27T04:11:24.170Z,1021.3
2018-09-27T04:12:24.155Z,1021.26
2018-09-27T04:13:24.141Z,1021.31
2018-09-27T04:14:24.128Z,1021.28
2018-09-27T04:15:24.113Z,1021.27
2018-09-27T04:16:24.100Z,1021.29
2018-09-27T04:17:24.082Z,1021.29
2018-09-27T04:18:24.071Z,1021.29
2018-09-27T04:19:24.052Z,1021.3
2018-09-27T04:20:24.045Z,1021.33
2018-09-27T04:21:24.023Z,1021.31
2018-09-27T04:22:24.008Z,1021.28
2018-09-27T04:23:23.994Z,1021.33
2018-09-27T04:24:23.978Z,1021.32
2018-09-27T04:25:23.962Z,1021.37
2018-09-27T04:26:23.948Z,1021.28
2018-09-27T04:27:23.934Z,1021.3
2018-09-27T04:28:23.920Z,1021.28
2018-09-27T04:29:23.903Z,1021.29
2018-09-27T04:30:23.886Z,1021.32
2018-09-27T04:31:23.871Z,1021.3
2018-09-27T04:32:23.862Z,1021.32
2018-09-27T04:33:23.840Z,1021.29
2018-09-27T04:34:23.826Z,1021.26
2018-09-27T04:35:23.810Z,1021.33
2018-09-27T04:36:23.796Z,1021.31
2018-09-27T04:37:23.780Z,1021.34
2018-09-27T04:38:23.765Z,1021.32
2018-09-27T04:39:23.752Z,1021.33
2018-09-27T04:40:23.736Z,1021.31
2018-09-27T04:41:23.720Z,1021.36
2018-09-27T04:42:23.707Z,1021.31
2018-09-27T04:43:23.689Z,1021.35
2018-09-27T04:44:23.680Z,1021.31
2018-09-27T04:45:23.658Z,1021.29
2018-09-27T04:46:23.642Z,1021.27
2018-09-27T04:47:23.628Z,1021.27
2018-09-27T04:48:23.611Z,1021.24
2018-09-27T04:49:23.595Z,1021.21
2018-09-27T04:50:23.581Z,1021.25
2018-09-27T04:51:23.567Z,1021.21
2018-09-27T04:52:23.557Z,1021.25
2018-09-27T04:53:23.535Z,1021.22
2018-09-27T04:54:23.576Z,1021.25
2018-09-27T04:55:23.503Z,1021.25
2018-09-27T04:56:23.500Z,1021.24
2018-09-27T04:57:23.674Z,1021.26
2018-09-27T04:58:23.458Z,1021.26
2018-09-27T04:59:23.442Z,1021.27
2018-09-27T05:00:23.431Z,1021.23
2018-09-27T05:01:23.417Z,1021.23
2018-09-27T05:02:23.395Z,1021.23
2018-09-27T05:03:23.383Z,1021.25
2018-09-27T05:04:23.367Z,1021.21
2018-09-27T05:05:23.348Z,1021.21
2018-09-27T05:06:23.413Z,1021.22
2018-09-27T05:07:23.317Z,1021.21
2018-09-27T05:08:23.301Z,1021.25
2018-09-27T05:09:23.339Z,1021.25
2018-09-27T05:10:23.273Z,1021.24
2018-09-27T05:11:23.254Z,1021.25
2018-09-27T05:12:23.239Z,1021.26
2018-09-27T05:13:23.223Z,1021.27
2018-09-27T05:14:23.207Z,1021.22
2018-09-27T05:15:23.196Z,1021.3
2018-09-27T05:16:23.180Z,1021.26
2018-09-27T05:17:23.161Z,1021.27
2018-09-27T05:18:23.144Z,1021.27
2018-09-27T05:19:23.129Z,1021.28
2018-09-27T05:20:23.140Z,1021.25
2018-09-27T05:21:23.127Z,1021.25
2018-09-27T05:22:23.083Z,1021.23
2018-09-27T05:23:23.068Z,1021.26
2018-09-27T05:24:23.051Z,1021.26
2018-09-27T05:25:23.036Z,1021.29
2018-09-27T05:26:23.021Z,1021.29
2018-09-27T05:27:23.042Z,1021.33
2018-09-27T05:28:22.987Z,1021.31
2018-09-27T05:29:22.974Z,1021.31
2018-09-27T05:30:22.957Z,1021.32
2018-09-27T05:31:22.941Z,1021.32
2018-09-27T05:32:22.925Z,1021.29
2018-09-27T05:33:22.926Z,1021.32
2018-09-27T05:34:22.894Z,1021.27
2018-09-27T05:35:22.879Z,1021.26
2018-09-27T05:36:22.861Z,1021.25
2018-09-27T05:37:22.845Z,1021.24
2018-09-27T05:38:22.829Z,1021.26
2018-09-27T05:39:22.842Z,1021.26
2018-09-27T05:40:22.801Z,1021.22
2018-09-27T05:41:22.783Z,1021.24
2018-09-27T05:42:22.769Z,1021.26
2018-09-27T05:43:22.749Z,1021.29
2018-09-27T05:44:22.734Z,1021.29
2018-09-27T05:45:22.721Z,1021.26
2018-09-27T05:46:22.702Z,1021.25
2018-09-27T05:47:22.687Z,1021.28
2018-09-27T05:48:22.677Z,1021.26
2018-09-27T05:49:22.657Z,1021.28
2018-09-27T05:50:22.660Z,1021.25
2018-09-27T05:51:22.673Z,1021.23
2018-09-27T05:52:22.608Z,1021.21
2018-09-27T05:53:22.592Z,1021.23
2018-09-27T05:54:22.575Z,1021.23
2018-09-27T05:55:22.561Z,1021.2
2018-09-27T05:56:22.545Z,1021.17
2018-09-27T05:57:22.534Z,1021.2
2018-09-27T05:58:22.515Z,1021.18
2018-09-27T05:59:22.500Z,1021.18
2018-09-27T06:00:22.481Z,1021.21
2018-09-27T06:01:22.465Z,1021.22
2018-09-27T06:02:22.452Z,1021.22
2018-09-27T06:03:22.460Z,1021.22
2018-09-27T06:04:22.419Z,1021.24
2018-09-27T06:05:22.403Z,1021.27
2018-09-27T06:06:22.387Z,1021.25
2018-09-27T06:07:22.372Z,1021.24
2018-09-27T06:08:22.360Z,1021.2
2018-09-27T06:09:22.357Z,1021.22
2018-09-27T06:10:22.325Z,1021.18
2018-09-27T06:11:22.419Z,1021.17
2018-09-27T06:12:22.292Z,1021.21
2018-09-27T06:13:22.274Z,1021.21
2018-09-27T06:14:22.257Z,1021.17
2018-09-27T06:15:22.288Z,1021.2
2018-09-27T06:16:22.227Z,1021.18
2018-09-27T06:17:22.211Z,1021.21
2018-09-27T06:18:22.195Z,1021.18
2018-09-27T06:19:22.211Z,1021.18
2018-09-27T06:20:22.168Z,1021.2
2018-09-27T06:21:22.158Z,1021.17
2018-09-27T06:22:22.140Z,1021.2
2018-09-27T06:23:22.116Z,1021.23
2018-09-27T06:24:22.101Z,1021.19
2018-09-27T06:25:22.084Z,1021.25
2018-09-27T06:26:22.068Z,1021.24
2018-09-27T06:27:22.140Z,1021.25
2018-09-27T06:28:22.039Z,1021.23
2018-09-27T06:29:22.020Z,1021.21
2018-09-27T06:30:22.004Z,1021.21
2018-09-27T06:31:21.992Z,1021.21
2018-09-27T06:32:21.976Z,1021.21
2018-09-27T06:33:21.973Z,1021.2
2018-09-27T06:34:21.942Z,1021.21
2018-09-27T06:35:21.926Z,1021.2
2018-09-27T06:36:21.909Z,1021.25
2018-09-27T06:37:21.894Z,1021.26
2018-09-27T06:38:21.899Z,1021.28
2018-09-27T06:39:21.863Z,1021.26
2018-09-27T06:40:21.848Z,1021.29
2018-09-27T06:41:21.855Z,1021.31
2018-09-27T06:42:21.815Z,1021.35
2018-09-27T06:43:21.801Z,1021.35
2018-09-27T06:44:21.792Z,1021.38
2018-09-27T06:45:21.771Z,1021.35
2018-09-27T06:46:21.755Z,1021.37
2018-09-27T06:47:21.738Z,1021.39
2018-09-27T06:48:21.751Z,1021.37
2018-09-27T06:49:21.710Z,1021.36
2018-09-27T06:50:21.703Z,1021.3
2018-09-27T06:51:21.676Z,1021.3
2018-09-27T06:52:21.664Z,1021.27
2018-09-27T06:53:21.646Z,1021.23
2018-09-27T06:54:21.630Z,1021.29
2018-09-27T06:55:21.995Z,1021.26
2018-09-27T06:56:21.603Z,1021.25
2018-09-27T06:57:21.786Z,1021.27
2018-09-27T06:58:21.566Z,1021.22
2018-09-27T06:59:21.552Z,1021.23
2018-09-27T07:00:21.537Z,1021.25
2018-09-27T07:01:21.522Z,1021.22
2018-09-27T07:02:21.505Z,1021.22
2018-09-27T07:03:21.491Z,1021.19
2018-09-27T07:04:21.478Z,1021.14
2018-09-27T07:05:21.465Z,1021.16
2018-09-27T07:06:21.445Z,1021.13
2018-09-27T07:07:21.513Z,1021.11
2018-09-27T07:08:21.417Z,1021.11
2018-09-27T07:09:21.399Z,1021.13
2018-09-27T07:10:21.388Z,1021.14
2018-09-27T07:11:21.369Z,1021.14
2018-09-27T07:12:21.528Z,1021.12
2018-09-27T07:13:21.339Z,1021.14
2018-09-27T07:14:21.322Z,1021.16
2018-09-27T07:15:21.308Z,1021.19
2018-09-27T07:16:21.299Z,1021.14
2018-09-27T07:17:21.277Z,1021.14
2018-09-27T07:18:21.263Z,1021.13
2018-09-27T07:19:21.246Z,1021.18
2018-09-27T07:20:21.294Z,1021.14
2018-09-27T07:21:21.216Z,1021.13
2018-09-27T07:22:21.205Z,1021.12
2018-09-27T07:23:21.191Z,1021.11
2018-09-27T07:24:21.176Z,1021.11
2018-09-27T07:25:21.159Z,1021.1
2018-09-27T07:26:21.164Z,1021.09
2018-09-27T07:27:21.126Z,1021.08
2018-09-27T07:28:21.113Z,1021.12
2018-09-27T07:29:21.097Z,1021.09
2018-09-27T07:30:21.082Z,1021.09
2018-09-27T07:31:21.069Z,1021.09
2018-09-27T07:32:21.051Z,1021.1
2018-09-27T07:33:21.040Z,1021.09
2018-09-27T07:34:21.024Z,1021.09
2018-09-27T07:35:21.007Z,1021.09
2018-09-27T07:36:20.997Z,1021.13
2018-09-27T07:37:20.983Z,1021.09
2018-09-27T07:38:20.967Z,1021.09
2018-09-27T07:39:20.949Z,1021.09
2018-09-27T07:40:20.934Z,1021.08
2018-09-27T07:41:20.920Z,1021.1
2018-09-27T07:42:20.905Z,1021.08
2018-09-27T07:43:20.893Z,1021.06
2018-09-27T07:44:20.874Z,1021.11
2018-09-27T07:45:20.861Z,1021.03
2018-09-27T07:46:20.846Z,1021.07
2018-09-27T07:47:20.831Z,1021.07
2018-09-27T07:48:20.843Z,1021.04
2018-09-27T07:49:20.807Z,1021.01
2018-09-27T07:50:20.789Z,1021
2018-09-27T07:51:20.774Z,1020.98
2018-09-27T07:52:20.759Z,1020.98
2018-09-27T07:53:20.744Z,1020.97
2018-09-27T07:54:20.807Z,1021
2018-09-27T07:55:20.716Z,1021
2018-09-27T07:56:20.703Z,1020.99
2018-09-27T07:57:20.687Z,1020.97
2018-09-27T07:58:20.671Z,1020.99
2018-09-27T07:59:20.664Z,1020.99
2018-09-27T08:00:20.648Z,1020.97
2018-09-27T08:01:20.634Z,1021
2018-09-27T08:02:20.615Z,1020.97
2018-09-27T08:03:20.604Z,1021.1
2018-09-27T08:04:20.654Z,1021.18
2018-09-27T08:05:20.580Z,1021.14
2018-09-27T08:06:20.559Z,1021.19
2018-09-27T08:07:20.549Z,1021.21
2018-09-27T08:08:20.533Z,1021.12
2018-09-27T08:09:20.521Z,1021.1
2018-09-27T08:10:20.506Z,1021.08
2018-09-27T08:11:20.738Z,1021.08
2018-09-27T08:12:20.481Z,1021.08
2018-09-27T08:13:20.469Z,1021.04
2018-09-27T08:14:20.454Z,1021.09
2018-09-27T08:15:20.444Z,1021.1
2018-09-27T08:16:20.428Z,1021.09
2018-09-27T08:17:20.497Z,1021.04
2018-09-27T08:18:20.403Z,1021.12
2018-09-27T08:19:20.390Z,1021.1
2018-09-27T08:20:20.389Z,1021.09
2018-09-27T08:21:20.407Z,1021.03
2018-09-27T08:22:20.355Z,1021.07
2018-09-27T08:23:20.340Z,1021.03
2018-09-27T08:24:20.327Z,1021
2018-09-27T08:25:20.314Z,1021.02
2018-09-27T08:26:20.306Z,1020.98
2018-09-27T08:27:20.338Z,1020.99
2018-09-27T08:28:20.281Z,1021
2018-09-27T08:29:20.262Z,1020.97
2018-09-27T08:30:20.299Z,1020.95
2018-09-27T08:31:20.238Z,1020.89
2018-09-27T08:32:20.225Z,1020.86
2018-09-27T08:33:20.214Z,1020.89
2018-09-27T08:34:20.201Z,1020.88
2018-09-27T08:35:20.188Z,1020.84
2018-09-27T08:36:20.176Z,1020.84
2018-09-27T08:37:20.162Z,1020.82
2018-09-27T08:38:20.174Z,1020.78
2018-09-27T08:39:20.139Z,1020.8
2018-09-27T08:40:20.128Z,1020.78
2018-09-27T08:41:20.111Z,1020.75
2018-09-27T08:42:20.097Z,1020.75
2018-09-27T08:43:20.086Z,1020.74
2018-09-27T08:44:20.150Z,1020.77
2018-09-27T08:45:20.250Z,1020.73
2018-09-27T08:46:20.047Z,1020.76
2018-09-27T08:47:20.035Z,1020.77
2018-09-27T08:48:20.022Z,1020.73
2018-09-27T08:49:20.010Z,1020.71
2018-09-27T08:50:19.995Z,1020.72
2018-09-27T08:51:19.984Z,1020.68
2018-09-27T08:52:19.971Z,1020.67
2018-09-27T08:53:19.957Z,1020.69
2018-09-27T08:54:19.946Z,1020.63
2018-09-27T08:55:19.953Z,1020.66
2018-09-27T08:56:19.981Z,1020.64
2018-09-27T08:57:20.109Z,1020.61
2018-09-27T08:58:19.895Z,1020.59
2018-09-27T08:59:19.882Z,1020.58
2018-09-27T09:00:19.869Z,1020.57
2018-09-27T09:01:19.864Z,1020.53
2018-09-27T09:02:19.845Z,1020.54
2018-09-27T09:03:19.849Z,1020.56
2018-09-27T09:04:19.834Z,1020.56
2018-09-27T09:05:19.808Z,1020.56
2018-09-27T09:06:19.799Z,1020.55
2018-09-27T09:07:19.780Z,1020.52
2018-09-27T09:08:19.773Z,1020.48
2018-09-27T09:09:19.756Z,1020.5
2018-09-27T09:10:19.753Z,1020.48
2018-09-27T09:11:19.736Z,1020.42
2018-09-27T09:12:19.720Z,1020.4
2018-09-27T09:13:19.722Z,1020.4
2018-09-27T09:14:19.695Z,1020.43
2018-09-27T09:15:19.682Z,1020.37
2018-09-27T09:16:19.669Z,1020.37
2018-09-27T09:17:19.657Z,1020.33
2018-09-27T09:18:19.644Z,1020.34
2018-09-27T09:19:19.633Z,1020.3
2018-09-27T09:20:19.619Z,1020.34
2018-09-27T09:21:19.606Z,1020.3
2018-09-27T09:22:19.595Z,1020.31
2018-09-27T09:23:19.582Z,1020.24
2018-09-27T09:24:19.569Z,1020.25
2018-09-27T09:25:19.558Z,1020.27
2018-09-27T09:26:19.547Z,1020.23
2018-09-27T09:27:19.533Z,1020.21
2018-09-27T09:28:19.520Z,1020.24
2018-09-27T09:29:19.537Z,1020.18
2018-09-27T09:30:19.497Z,1020.18
2018-09-27T09:31:19.485Z,1020.14
2018-09-27T09:32:19.473Z,1020.15
2018-09-27T09:33:19.461Z,1020.14
2018-09-27T09:34:19.447Z,1020.03
2018-09-27T09:35:19.434Z,1020.1
2018-09-27T09:36:19.427Z,1020.09
2018-09-27T09:37:19.409Z,1020.06
2018-09-27T09:38:19.399Z,1020.06
2018-09-27T09:39:19.386Z,1020
2018-09-27T09:40:19.373Z,1019.99
2018-09-27T09:41:19.361Z,1019.88
2018-09-27T09:42:19.349Z,1019.9
2018-09-27T09:43:19.340Z,1019.87
2018-09-27T09:44:19.324Z,1019.89
2018-09-27T09:45:19.314Z,1019.89
2018-09-27T09:46:19.303Z,1019.86
2018-09-27T09:47:19.290Z,1019.87
2018-09-27T09:48:19.277Z,1019.86
2018-09-27T09:49:19.266Z,1019.85
2018-09-27T09:50:19.254Z,1019.8
2018-09-27T09:51:19.244Z,1019.74
2018-09-27T09:52:19.233Z,1019.77
2018-09-27T09:53:19.219Z,1019.75
2018-09-27T09:54:19.207Z,1019.73
2018-09-27T09:55:19.195Z,1019.67
2018-09-27T09:56:19.181Z,1019.69
2018-09-27T09:57:19.173Z,1019.67
2018-09-27T09:58:19.166Z,1019.66
2018-09-27T09:59:19.152Z,1019.61
2018-09-27T10:00:19.137Z,1019.56
2018-09-27T10:01:19.127Z,1019.59
2018-09-27T10:02:19.190Z,1019.57
2018-09-27T10:03:19.102Z,1019.53
2018-09-27T10:04:19.092Z,1019.57
2018-09-27T10:05:19.080Z,1019.56
2018-09-27T10:06:19.071Z,1019.53
2018-09-27T10:07:19.055Z,1019.53
2018-09-27T10:08:19.042Z,1019.5
2018-09-27T10:09:19.031Z,1019.49
2018-09-27T10:10:19.029Z,1019.4
2018-09-27T10:11:19.016Z,1019.43
2018-09-27T10:12:18.999Z,1019.41
2018-09-27T10:13:18.987Z,1019.41
2018-09-27T10:14:18.976Z,1019.38
2018-09-27T10:15:18.966Z,1019.39
2018-09-27T10:16:18.953Z,1019.39
2018-09-27T10:17:18.944Z,1019.38
2018-09-27T10:18:18.931Z,1019.37
2018-09-27T10:19:18.932Z,1019.36
2018-09-27T10:20:18.908Z,1019.4
2018-09-27T10:21:18.896Z,1019.34
2018-09-27T10:22:18.886Z,1019.36
2018-09-27T10:23:18.875Z,1019.35
2018-09-27T10:24:18.865Z,1019.34
2018-09-27T10:25:18.854Z,1019.37
2018-09-27T10:26:18.842Z,1019.28
2018-09-27T10:27:18.838Z,1019.22
2018-09-27T10:28:18.822Z,1019.22
2018-09-27T10:29:18.807Z,1019.23
2018-09-27T10:30:18.798Z,1019.25
2018-09-27T10:31:18.788Z,1019.17
2018-09-27T10:32:18.775Z,1019.19
2018-09-27T10:33:18.773Z,1019.15
2018-09-27T10:34:18.839Z,1019.15
2018-09-27T10:35:18.743Z,1019.15
2018-09-27T10:36:18.734Z,1019.11
2018-09-27T10:37:18.723Z,1019.09
2018-09-27T10:38:18.712Z,1019.12
2018-09-27T10:39:18.705Z,1019.09
2018-09-27T10:40:18.690Z,1019.11
2018-09-27T10:41:18.680Z,1019.12
2018-09-27T10:42:18.668Z,1019.11
2018-09-27T10:43:18.658Z,1019.12
2018-09-27T10:44:18.648Z,1019.11
2018-09-27T10:45:18.640Z,1019.08
2018-09-27T10:46:18.628Z,1019.07
2018-09-27T10:47:18.622Z,1019.06
2018-09-27T10:48:18.607Z,1019.03
2018-09-27T10:49:18.597Z,1019.03
2018-09-27T10:50:18.590Z,1019.05
2018-09-27T10:51:18.628Z,1019.02
2018-09-27T10:52:18.570Z,1019.04
2018-09-27T10:53:18.554Z,1019.03
2018-09-27T10:54:18.544Z,1019.04
2018-09-27T10:55:18.537Z,1019.08
2018-09-27T10:56:18.525Z,1019.05
2018-09-27T10:57:18.790Z,1019.01
2018-09-27T10:58:18.502Z,1019.04
2018-09-27T10:59:18.493Z,1019
2018-09-27T11:00:18.484Z,1018.99
2018-09-27T11:01:18.472Z,1019
2018-09-27T11:02:18.461Z,1018.99
2018-09-27T11:03:18.451Z,1018.96
2018-09-27T11:04:18.440Z,1018.92
2018-09-27T11:05:18.432Z,1018.89
2018-09-27T11:06:18.421Z,1018.88
2018-09-27T11:07:18.411Z,1018.87
2018-09-27T11:08:18.400Z,1018.84
2018-09-27T11:09:18.395Z,1018.82
2018-09-27T11:10:18.380Z,1018.82
2018-09-27T11:11:18.435Z,1018.83
2018-09-27T11:12:18.361Z,1018.81
2018-09-27T11:13:18.351Z,1018.82
2018-09-27T11:14:18.344Z,1018.8
2018-09-27T11:15:18.337Z,1018.73
2018-09-27T11:16:18.321Z,1018.75
2018-09-27T11:17:18.313Z,1018.73
2018-09-27T11:18:18.303Z,1018.73
2018-09-27T11:19:18.291Z,1018.68
2018-09-27T11:20:18.285Z,1018.67
2018-09-27T11:21:18.272Z,1018.61
2018-09-27T11:22:18.264Z,1018.59
2018-09-27T11:23:18.255Z,1018.63
2018-09-27T11:24:18.244Z,1018.59
2018-09-27T11:25:18.235Z,1018.6
2018-09-27T11:26:18.225Z,1018.57
2018-09-27T11:27:18.216Z,1018.54
2018-09-27T11:28:18.210Z,1018.57
2018-09-27T11:29:18.306Z,1018.53
2018-09-27T11:30:18.194Z,1018.57
2018-09-27T11:31:18.181Z,1018.56
2018-09-27T11:32:18.170Z,1018.58
2018-09-27T11:33:18.172Z,1018.59
2018-09-27T11:34:18.159Z,1018.51
2018-09-27T11:35:18.149Z,1018.51
2018-09-27T11:36:18.181Z,1018.49
2018-09-27T11:37:18.130Z,1018.46
2018-09-27T11:38:18.124Z,1018.44
2018-09-27T11:39:18.117Z,1018.39
2018-09-27T11:40:18.108Z,1018.41
2018-09-27T11:41:18.104Z,1018.48
2018-09-27T11:42:18.129Z,1018.4
2018-09-27T11:43:18.090Z,1018.37
2018-09-27T11:44:18.076Z,1018.38
2018-09-27T11:45:18.070Z,1018.4
2018-09-27T11:46:18.070Z,1018.35
2018-09-27T11:47:18.057Z,1018.35
2018-09-27T11:48:18.050Z,1018.37
2018-09-27T11:49:18.089Z,1018.31
2018-09-27T11:50:18.143Z,1018.3
2018-09-27T11:51:18.036Z,1018.31
2018-09-27T11:52:18.029Z,1018.29
2018-09-27T11:53:18.023Z,1018.31
2018-09-27T11:54:18.024Z,1018.26
2018-09-27T11:55:18.015Z,1018.27
2018-09-27T11:56:18.011Z,1018.3
2018-09-27T11:57:18.011Z,1018.29
2018-09-27T11:58:18.010Z,1018.24
2018-09-27T11:59:18.002Z,1018.23
2018-09-27T12:00:18.008Z,1018.19
2018-09-27T12:01:18.003Z,1018.14
2018-09-27T12:02:18.001Z,1018.13
2018-09-27T12:03:17.999Z,1018.15
2018-09-27T12:04:17.997Z,1018.13
2018-09-27T12:05:18.005Z,1018.07
2018-09-27T12:06:18.028Z,1017.99
2018-09-27T12:07:18.013Z,1017.98
2018-09-27T12:08:17.999Z,1017.99
2018-09-27T12:09:17.999Z,1017.94